Flight Track Log - Related Links

Times and Time Zones

All times are in EDT time to prevent confusion due to time zone crossing. See the N877PM flight status page for this flight to view local times or setup timezone preferences in your user account.

Time Position Orientation Groundspeed Altitude Reporting Facility
EDT Latitude Longitude Course Direction KTS MPH feet Rate Location/Type
Sun 08:34:17 AM 41.8736 -91.6547 114° Southeast 156 180 4,300  Level Chicago Center
Sun 08:35:18 AM 41.8544 -91.6006 115° Southeast 156 180 6,800 2,311 Climbing Chicago Center
Sun 08:36:19 AM 41.8325 -91.5392 116° Southeast 177 204 9,000 2,244 Climbing Chicago Center
Sun 08:37:21 AM 41.8103 -91.4728 114° Southeast 191 220 11,400 2,244 Climbing Chicago Center
Sun 08:38:22 AM 41.7872 -91.4053 115° Southeast 197 227 13,600 1,967 Climbing Chicago Center
Sun 08:39:00 AM 41.6753 -91.1090 114° Southeast  Level FlightAware
Sun 08:39:23 AM 41.7628 -91.3331 114° Southeast 210 242 15,400  Level Chicago Center
Sun 08:40:24 AM 41.7372 -91.2531 113° Southeast 229 264 17,100 1,525 Climbing Chicago Center
Sun 08:41:25 AM 41.7086 -91.1719 115° Southeast 240 276 18,500 1,672 Climbing Chicago Center
Sun 08:42:26 AM 41.6756 -91.0706 114° Southeast 247 284 20,500 1,707 Climbing Chicago Center
Sun 08:43:28 AM 41.6467 -90.9867 115° Southeast 250 288 22,000 1,463 Climbing Chicago Center
Sun 08:44:29 AM 41.6178 -90.9039 115° Southeast 249 287 23,500 1,377 Climbing Chicago Center
Sun 08:45:30 AM 41.5881 -90.8169 115° Southeast 253 291 24,800 1,328 Climbing Chicago Center
Sun 08:46:31 AM 41.5575 -90.7269 114° Southeast 262 302 26,200 1,082 Climbing Chicago Center
Sun 08:47:32 AM 41.5244 -90.6350 116° Southeast 272 313 27,000 393 Climbing Chicago Center
Sun 08:48:33 AM 41.4881 -90.5253 114° Southeast 311 358 27,000  Level Chicago Center
Sun 08:49:34 AM 41.4458 -90.4067 115° Southeast 349 402 27,000  Level Chicago Center
Sun 08:50:35 AM 41.4033 -90.2794 114° Southeast 372 428 27,000  Level Chicago Center
Sun 08:51:37 AM 41.3592 -90.1519 115° Southeast 375 432 27,000  Level Chicago Center
Sun 08:52:38 AM 41.3128 -90.0244 116° Southeast 380 437 27,000  Level Chicago Center
Sun 08:53:39 AM 41.2586 -89.8683 115° Southeast 382 440 27,000  Level Chicago Center
Sun 08:54:40 AM 41.2131 -89.7381 115° Southeast 383 441 27,000  Level Chicago Center
Sun 08:55:41 AM 41.1669 -89.6094 115° Southeast 383 441 27,000  Level Chicago Center
Sun 08:56:42 AM 41.1192 -89.4833 117° Southeast 383 441 27,000  Level Chicago Center
Sun 08:57:44 AM 41.0678 -89.3592 119° Southeast 383 441 27,000  Level Chicago Center
Sun 08:58:45 AM 41.0183 -89.2331 117° Southeast 383 441 27,000  Level Chicago Center
Sun 08:59:46 AM 40.9683 -89.1075 118° Southeast 383 441 27,000  Level Chicago Center
Sun 09:00:47 AM 40.9169 -88.9831 119° Southeast 383 441 27,000  Level Chicago Center
Sun 09:01:48 AM 40.8683 -88.8586 117° Southeast 383 441 27,000  Level Chicago Center
Sun 09:02:50 AM 40.8175 -88.7261 117° Southeast 383 441 27,000  Level Chicago Center
Sun 09:03:51 AM 40.7761 -88.5997 113° Southeast 382 440 27,000 -49 Level Chicago Center
Sun 09:04:52 AM 40.7322 -88.4736 115° Southeast 381 438 26,900 -683 Descending Chicago Center
Sun 09:05:54 AM 40.6861 -88.3417 115° Southeast 396 456 25,600 -1,415 Descending Chicago Center
Sun 09:06:55 AM 40.6400 -88.2094 115° Southeast 402 463 24,000 -1,279 Descending Chicago Center
Sun 09:07:56 AM 40.5872 -88.0547 114° Southeast 392 451 23,000 -492 Descending Chicago Center
Sun 09:08:57 AM 40.5425 -87.9286 115° Southeast 388 447 23,000  Level Chicago Center
Sun 09:09:59 AM 40.4986 -87.8044 115° Southeast 382 440 23,000 -195 Level Chicago Center
Sun 09:11:00 AM 40.4536 -87.6811 116° Southeast 381 438 22,600 -934 Descending Chicago Center
Sun 09:12:01 AM 40.4092 -87.5497 114° Southeast 388 447 21,100 -1,707 Descending Chicago Center
Sun 09:13:03 AM 40.3575 -87.4072 115° Southeast 400 460 19,100 -1,805 Descending Chicago Center
Sun 09:14:04 AM 40.3083 -87.2750 116° Southeast 402 463 17,400 -1,770 Descending Chicago Center
Sun 09:15:05 AM 40.2622 -87.1456 115° Southeast 396 456 15,500 -1,707 Descending Chicago Center
Sun 09:16:07 AM 40.2175 -87.0242 116° Southeast 373 429 13,900 -1,220 Descending Chicago Center
Sun 09:17:08 AM 40.1753 -86.9081 115° Southeast 357 411 13,000 -439 Descending Chicago Center
Sun 09:18:10 AM 40.1236 -86.8153 126° Southeast 314 361 13,000 -189 Level Chicago Center
Sun 09:18:43 AM 40.0883 -86.7647 132° Southeast 312 359 12,700 -1,200 Descending Indianapolis Center
Sun 09:19:45 AM 40.0303 -86.6797 132° Southeast 310 357 11,100 -1,561 Descending Indianapolis Center
Sun 09:20:46 AM 39.9631 -86.6269 149° Southeast 289 333 9,500 -1,756 Descending Indianapolis Center
Sun 09:21:48 AM 39.8839 -86.5692 151° Southeast 278 320 7,500 -1,220 Descending Indianapolis Center
Sun 09:22:49 AM 39.8217 -86.5281 153° Southeast 258 297 7,000 -976 Descending Indianapolis Center
Sun 09:23:51 AM 39.7628 -86.4853 151° Southeast 251 289 5,500 -1,839 Descending Indianapolis Center
Sun 09:24:53 AM 39.7094 -86.4439 149° Southeast 236 272 3,200 -1,707 Descending Indianapolis Center
Sun 09:25:54 AM 39.6839 -86.3981 126° Southeast 180 207 2,000 -829 Descending Indianapolis Center
Sun 09:26:56 AM 39.6808 -86.3592 96° East 136 157 1,500 -488 Descending Indianapolis Center
Sun 09:27:57 AM 39.7000 -86.3297 50° Northeast 103 119 1,000 -341 Descending Indianapolis Center
Sun 09:28:59 AM 39.7164 -86.3086 45° Northeast 99 114 800 -194 Descending Indianapolis Center
Sun 09:30:00 AM 39.7173 -86.2947 142° Southeast  Level Estimated

Login

Don't have an account? Register now (free) for customized features, flight alerts, and more!